Terminal Aerodrome Forecast
Issued by NWS

Home | Current Version | Previous Version | Text Only | Print | Product List | Glossary On
Versions: 1 2 3 4 5 6 7 8 9 10 11 12 13 14
000
FTUS46 KSEW 231120
TAFOLM
TAF
KOLM 231120Z 2312/2412 00000KT P6SM MIFG FEW002 OVC010
      TEMPO 2312/2316 1/2SM FG BKN001 OVC010
     FM231600 VRB03KT 1SM BR OVC003
     FM231900 04004KT P6SM SCT070 BKN200=

USA.gov is the U.S. government's official web portal to all federal, state and local government web resources and services.